createdAt,value
2018-10-09T00:01:50.061Z,98.07
2018-10-09T00:04:18.494Z,101.50
2018-10-09T00:06:46.885Z,110.93
2018-10-09T00:09:15.287Z,105.63
2018-10-09T00:11:43.603Z,103.27
2018-10-09T00:14:11.929Z,101.07
2018-10-09T00:16:40.341Z,96.17
2018-10-09T00:19:08.626Z,99.33
2018-10-09T00:21:36.885Z,92.17
2018-10-09T00:24:05.270Z,91.50
2018-10-09T00:26:33.611Z,91.57
2018-10-09T00:29:01.944Z,92.03
2018-10-09T00:31:30.212Z,91.33
2018-10-09T00:33:58.602Z,89.30
2018-10-09T00:36:26.913Z,97.40
2018-10-09T00:38:55.189Z,88.50
2018-10-09T00:41:23.685Z,86.27
2018-10-09T00:43:52.009Z,90.17
2018-10-09T00:46:20.294Z,86.03
2018-10-09T00:48:48.620Z,86.50
2018-10-09T00:51:17.169Z,93.33
2018-10-09T00:53:45.507Z,94.40
2018-10-09T00:56:13.783Z,91.67
2018-10-09T00:58:42.065Z,90.07
2018-10-09T01:01:10.601Z,89.13
2018-10-09T01:03:38.915Z,90.63
2018-10-09T01:06:07.471Z,91.33
2018-10-09T01:08:35.816Z,96.00
2018-10-09T01:11:04.235Z,96.80
2018-10-09T01:13:32.664Z,90.47
2018-10-09T01:16:01.024Z,92.50
2018-10-09T01:18:29.452Z,98.23
2018-10-09T01:20:57.799Z,98.17
2018-10-09T01:23:26.103Z,97.83
2018-10-09T01:25:54.551Z,102.00
2018-10-09T01:28:22.807Z,102.00
2018-10-09T01:30:51.121Z,101.30
2018-10-09T01:33:19.390Z,106.33
2018-10-09T01:35:47.834Z,101.73
2018-10-09T01:38:16.195Z,108.23
2018-10-09T01:40:44.539Z,105.67
2018-10-09T01:43:12.947Z,112.60
2018-10-09T01:45:41.375Z,103.87
2018-10-09T01:48:09.678Z,106.20
2018-10-09T01:50:38.087Z,101.67
2018-10-09T01:53:06.402Z,104.83
2018-10-09T01:55:34.676Z,97.33
2018-10-09T01:58:02.954Z,102.70
2018-10-09T02:00:31.450Z,97.57
2018-10-09T02:02:59.707Z,100.90
2018-10-09T02:05:28.119Z,104.93
2018-10-09T02:07:56.425Z,97.50
2018-10-09T02:10:24.687Z,93.13
2018-10-09T02:12:53.227Z,89.90
2018-10-09T02:15:21.503Z,95.63
2018-10-09T02:17:49.960Z,96.93
2018-10-09T02:20:18.265Z,99.57
2018-10-09T02:22:46.541Z,99.30
2018-10-09T02:25:14.836Z,100.13
2018-10-09T02:27:43.128Z,103.53
2018-10-09T02:30:11.685Z,106.20
2018-10-09T02:32:40.026Z,109.17
2018-10-09T02:35:08.414Z,101.03
2018-10-09T02:37:36.869Z,102.97
2018-10-09T02:40:06.271Z,108.67
2018-10-09T02:42:34.722Z,108.87
2018-10-09T02:45:03.064Z,107.20
2018-10-09T02:47:31.417Z,108.17
2018-10-09T02:49:59.884Z,113.27
2018-10-09T02:52:28.188Z,109.63
2018-10-09T02:54:56.639Z,108.97
2018-10-09T02:57:24.952Z,111.17
2018-10-09T02:59:53.222Z,104.27
2018-10-09T03:02:22.125Z,114.20
2018-10-09T03:04:50.381Z,119.10
2018-10-09T03:07:18.702Z,108.00
2018-10-09T03:09:47.088Z,103.17
2018-10-09T03:12:15.363Z,103.60
2018-10-09T03:14:43.773Z,96.57
2018-10-09T03:17:12.100Z,106.63
2018-10-09T03:19:40.479Z,100.63
2018-10-09T03:22:09.009Z,110.43
2018-10-09T03:24:37.419Z,120.23
2018-10-09T03:27:05.748Z,104.47
2018-10-09T03:29:34.058Z,116.07
2018-10-09T03:32:04.520Z,128.40
2018-10-09T03:34:32.883Z,111.80
2018-10-09T03:37:01.150Z,106.23
2018-10-09T03:39:29.463Z,101.87
2018-10-09T03:41:57.796Z,100.60
2018-10-09T03:44:26.095Z,96.97
2018-10-09T03:46:54.435Z,124.93
2018-10-09T03:49:22.785Z,95.20
2018-10-09T03:51:51.485Z,119.90
2018-10-09T03:54:19.728Z,105.93
2018-10-09T03:56:48.173Z,102.63
2018-10-09T03:59:16.451Z,111.87
2018-10-09T04:01:44.715Z,128.67
2018-10-09T04:04:13.015Z,110.07
2018-10-09T04:06:41.375Z,94.13
2018-10-09T04:09:11.892Z,97.30
2018-10-09T04:11:40.264Z,97.80
2018-10-09T04:14:08.623Z,98.60
2018-10-09T04:16:37.099Z,107.43
2018-10-09T04:19:05.649Z,105.17
2018-10-09T04:21:34.011Z,108.87
2018-10-09T04:24:02.304Z,102.03
2018-10-09T04:29:06.115Z,99.43
2018-10-09T04:31:34.475Z,98.40
2018-10-09T04:34:02.742Z,92.37
2018-10-09T04:36:31.092Z,87.70
2018-10-09T04:38:59.437Z,89.07
2018-10-09T04:41:27.672Z,81.27
2018-10-09T04:43:56.045Z,81.30
2018-10-09T04:46:24.603Z,89.27
2018-10-09T04:48:52.857Z,81.40
2018-10-09T04:51:21.132Z,78.47
2018-10-09T04:53:49.409Z,80.67
2018-10-09T04:56:17.659Z,84.77
2018-10-09T04:58:46.009Z,80.47
2018-10-09T05:01:14.441Z,78.97
2018-10-09T05:03:42.743Z,80.00
2018-10-09T05:06:11.317Z,82.63
2018-10-09T05:08:39.597Z,79.87
2018-10-09T05:11:07.991Z,79.03
2018-10-09T05:13:36.304Z,80.33
2018-10-09T05:16:04.875Z,84.00
2018-10-09T05:18:33.255Z,87.07
2018-10-09T05:21:01.692Z,94.60
2018-10-09T05:23:30.172Z,86.67
2018-10-09T05:25:58.695Z,86.53
2018-10-09T05:28:26.933Z,84.90
2018-10-09T05:30:55.318Z,82.73
2018-10-09T05:33:23.680Z,87.53
2018-10-09T05:35:52.005Z,86.27
2018-10-09T05:38:20.289Z,68.87
2018-10-09T05:40:48.679Z,67.73
2018-10-09T05:43:16.991Z,67.53
2018-10-09T05:45:45.290Z,74.80
2018-10-09T05:48:13.747Z,59.63
2018-10-09T05:50:42.188Z,62.50
2018-10-09T05:53:10.441Z,66.40
2018-10-09T05:55:38.721Z,66.57
2018-10-09T05:58:07.455Z,67.43
2018-10-09T06:00:35.798Z,61.03
2018-10-09T06:03:04.188Z,66.47
2018-10-09T06:05:33.178Z,62.17
2018-10-09T06:08:01.463Z,65.77
2018-10-09T06:10:29.834Z,72.33
2018-10-09T06:12:58.336Z,74.17
2018-10-09T06:15:26.799Z,72.27
2018-10-09T06:18:01.350Z,70.83
2018-10-09T06:20:29.668Z,72.80
2018-10-09T06:22:57.947Z,77.60
2018-10-09T06:25:26.420Z,75.63
2018-10-09T06:27:54.907Z,75.57
2018-10-09T06:30:23.369Z,77.43
2018-10-09T06:32:51.950Z,83.20
2018-10-09T06:35:20.282Z,78.37
2018-10-09T06:37:48.657Z,80.63
2018-10-09T06:40:17.267Z,77.13
2018-10-09T06:42:45.620Z,73.50
2018-10-09T06:45:14.178Z,80.50
2018-10-09T06:47:42.898Z,73.97
2018-10-09T06:50:11.199Z,72.63
2018-10-09T06:52:39.724Z,78.20
2018-10-09T06:55:08.062Z,76.83
2018-10-09T06:57:36.489Z,72.17
2018-10-09T07:00:05.134Z,81.93
2018-10-09T07:02:33.441Z,73.90
2018-10-09T07:05:01.759Z,76.67
2018-10-09T07:07:30.130Z,71.00
2018-10-09T07:09:58.503Z,73.70
2018-10-09T07:12:43.528Z,75.23
2018-10-09T07:15:12.970Z,80.60
2018-10-09T07:17:41.872Z,86.87
2018-10-09T07:20:10.438Z,77.63
2018-10-09T07:22:38.828Z,78.83
2018-10-09T07:25:08.285Z,77.40
2018-10-09T07:27:36.650Z,83.10
2018-10-09T07:30:06.228Z,66.53
2018-10-09T07:32:34.732Z,61.97
2018-10-09T07:35:03.101Z,57.40
2018-10-09T07:37:31.811Z,54.77
2018-10-09T07:40:00.227Z,60.17
2018-10-09T07:42:29.698Z,64.37
2018-10-09T07:44:58.085Z,65.40
2018-10-09T07:47:26.438Z,66.53
2018-10-09T07:49:55.747Z,70.13
2018-10-09T07:52:24.127Z,68.57
2018-10-09T07:54:53.662Z,64.37
2018-10-09T07:57:21.984Z,73.63
2018-10-09T07:59:50.470Z,66.73
2018-10-09T08:02:18.760Z,68.37
2018-10-09T08:04:47.277Z,65.77
2018-10-09T08:07:15.690Z,61.63
2018-10-09T08:09:43.976Z,63.70
2018-10-09T08:12:12.611Z,65.53
2018-10-09T08:14:40.899Z,63.87
2018-10-09T08:17:11.643Z,64.47
2018-10-09T08:19:39.963Z,63.57
2018-10-09T08:22:08.437Z,66.20
2018-10-09T08:24:37.990Z,64.10
2018-10-09T08:27:06.633Z,60.30
2018-10-09T08:29:36.610Z,65.67
2018-10-09T08:32:05.067Z,61.90
2018-10-09T08:34:33.584Z,62.93
2018-10-09T08:37:01.908Z,59.53
2018-10-09T08:39:30.378Z,63.17
2018-10-09T08:41:58.759Z,60.27
2018-10-09T08:44:29.801Z,62.03
2018-10-09T08:46:59.156Z,57.03
2018-10-09T08:49:27.486Z,58.50
2018-10-09T08:51:56.102Z,59.33
2018-10-09T08:54:25.010Z,63.60
2018-10-09T08:56:53.361Z,60.37
2018-10-09T08:59:26.564Z,60.03
2018-10-09T09:01:54.806Z,60.63
2018-10-09T09:04:23.097Z,59.37
2018-10-09T09:06:51.363Z,58.27
2018-10-09T09:09:19.711Z,58.70
2018-10-09T09:11:48.595Z,56.20
2018-10-09T09:14:17.110Z,59.87
2018-10-09T09:16:45.762Z,59.53
2018-10-09T09:19:14.349Z,58.83
2018-10-09T09:21:43.302Z,61.27
2018-10-09T09:24:11.652Z,61.67
2018-10-09T09:26:41.865Z,73.93
2018-10-09T09:29:10.140Z,60.17
2018-10-09T09:31:38.453Z,55.57
2018-10-09T09:34:07.044Z,54.17
2018-10-09T09:36:35.731Z,55.70
2018-10-09T09:39:04.596Z,54.87
2018-10-09T09:41:32.881Z,56.00
2018-10-09T09:44:01.157Z,52.40
2018-10-09T09:46:29.669Z,50.97
2018-10-09T09:48:59.288Z,47.40
2018-10-09T09:51:27.576Z,49.30
2018-10-09T09:53:56.596Z,51.27
2018-10-09T09:56:25.595Z,50.83
2018-10-09T09:58:54.692Z,47.97
2018-10-09T10:01:28.432Z,51.57
2018-10-09T10:03:56.886Z,48.73
2018-10-09T10:06:25.230Z,57.20
2018-10-09T10:08:53.570Z,49.13
2018-10-09T10:11:22.133Z,50.03
2018-10-09T10:13:50.448Z,45.87
2018-10-09T10:16:18.761Z,44.23
2018-10-09T10:18:47.061Z,43.87
2018-10-09T10:21:15.386Z,39.67
2018-10-09T10:23:43.730Z,38.63
2018-10-09T10:26:12.172Z,35.63
2018-10-09T10:28:40.484Z,40.20
2018-10-09T10:31:08.910Z,37.45
2018-10-09T10:33:37.322Z,44.05
2018-10-09T10:36:05.580Z,43.73
2018-10-09T10:38:34.033Z,33.15
2018-10-09T10:41:02.307Z,31.00
2018-10-09T10:43:30.645Z,30.50
2018-10-09T10:45:59.075Z,29.27
2018-10-09T10:48:27.348Z,30.92
2018-10-09T10:50:55.964Z,28.35
2018-10-09T10:53:24.310Z,25.05
2018-10-09T10:55:53.004Z,23.22
2018-10-09T10:58:21.421Z,21.23
2018-10-09T11:00:50.144Z,24.27
2018-10-09T11:03:18.711Z,22.22
2018-10-09T11:05:47.000Z,19.98
2018-10-09T11:08:15.284Z,23.40
2018-10-09T11:10:43.544Z,25.23
2018-10-09T11:13:11.912Z,22.05
2018-10-09T11:15:40.362Z,25.30
2018-10-09T11:18:08.611Z,23.42
2018-10-09T11:20:36.974Z,23.52
2018-10-09T11:23:07.244Z,21.65
2018-10-09T11:25:35.612Z,26.70
2018-10-09T11:28:03.946Z,21.77
2018-10-09T11:30:32.206Z,22.05
2018-10-09T11:33:00.590Z,22.32
2018-10-09T11:35:28.843Z,21.25
2018-10-09T11:37:57.161Z,21.02
2018-10-09T11:40:25.471Z,20.90
2018-10-09T11:42:53.876Z,19.02
2018-10-09T11:45:22.245Z,19.62
2018-10-09T11:47:50.736Z,18.45
2018-10-09T11:50:19.062Z,18.20
2018-10-09T11:52:47.432Z,18.50
2018-10-09T11:55:15.889Z,21.37
2018-10-09T11:57:44.316Z,22.25
2018-10-09T12:00:12.634Z,16.85
2018-10-09T12:02:40.958Z,18.67
2018-10-09T12:05:09.820Z,17.67
2018-10-09T12:07:38.200Z,15.45
2018-10-09T12:10:06.545Z,17.85
2018-10-09T12:12:36.931Z,17.07
2018-10-09T12:15:05.684Z,15.55
2018-10-09T12:17:33.979Z,15.53
2018-10-09T12:20:02.246Z,16.97
2018-10-09T12:22:30.645Z,17.15
2018-10-09T12:24:59.018Z,19.48
2018-10-09T12:27:30.959Z,18.23
2018-10-09T12:29:59.387Z,19.95
2018-10-09T12:32:28.060Z,17.75
2018-10-09T12:34:56.401Z,15.88
2018-10-09T12:37:25.741Z,18.23
2018-10-09T12:39:54.154Z,17.50
2018-10-09T12:42:22.955Z,15.70
2018-10-09T12:44:51.315Z,17.17
2018-10-09T12:47:19.690Z,15.18
2018-10-09T12:49:48.078Z,15.98
2018-10-09T12:52:16.475Z,14.93
2018-10-09T12:54:45.570Z,15.40
2018-10-09T12:57:14.461Z,16.45
2018-10-09T12:59:42.768Z,14.58
2018-10-09T13:02:11.171Z,15.68
2018-10-09T13:04:39.671Z,14.83
2018-10-09T13:07:08.417Z,17.92
2018-10-09T13:09:36.899Z,15.78
2018-10-09T13:12:05.329Z,16.93
2018-10-09T13:14:33.818Z,14.78
2018-10-09T13:17:02.373Z,14.90
2018-10-09T13:19:43.973Z,13.78
2018-10-09T13:22:29.397Z,13.88
2018-10-09T13:24:57.408Z,13.80
2018-10-09T13:27:25.738Z,17.23
2018-10-09T13:29:54.131Z,14.65
2018-10-09T13:32:22.460Z,18.07
2018-10-09T13:34:50.751Z,14.60
2018-10-09T13:37:19.386Z,14.25
2018-10-09T13:39:47.705Z,29.18
2018-10-09T13:42:16.024Z,13.38
2018-10-09T13:44:44.358Z,12.95
2018-10-09T13:47:12.810Z,15.55
2018-10-09T13:49:41.241Z,13.75
2018-10-09T13:52:09.705Z,15.25
2018-10-09T13:54:38.018Z,13.00
2018-10-09T13:57:06.729Z,13.30
2018-10-09T13:59:35.300Z,14.35
2018-10-09T14:02:03.822Z,14.33
2018-10-09T14:04:32.116Z,13.65
2018-10-09T14:07:00.524Z,14.07
2018-10-09T14:09:28.774Z,13.80
2018-10-09T14:11:57.097Z,12.82
2018-10-09T14:14:25.397Z,13.32
2018-10-09T14:16:53.724Z,13.20
2018-10-09T14:19:22.061Z,13.43
2018-10-09T14:21:50.564Z,13.70
2018-10-09T14:24:18.865Z,12.40
2018-10-09T14:26:47.174Z,12.90
2018-10-09T14:29:15.488Z,12.93
2018-10-09T14:31:43.978Z,13.22
2018-10-09T14:34:12.307Z,11.57
2018-10-09T14:36:40.888Z,11.88
2018-10-09T14:39:09.575Z,14.85
2018-10-09T14:41:38.181Z,12.28
2018-10-09T14:44:06.735Z,12.33
2018-10-09T14:46:35.133Z,12.78
2018-10-09T14:49:03.381Z,12.68
2018-10-09T14:51:31.887Z,12.98
2018-10-09T14:54:00.216Z,16.32
2018-10-09T14:56:28.532Z,12.58
2018-10-09T14:58:56.824Z,12.07
2018-10-09T15:01:25.196Z,12.82
2018-10-09T15:03:53.753Z,12.70
2018-10-09T15:06:22.479Z,12.68
2018-10-09T15:10:20.062Z,12.30
2018-10-09T15:12:48.417Z,12.65
2018-10-09T15:15:16.764Z,12.58
2018-10-09T15:17:45.182Z,12.68
2018-10-09T15:20:13.764Z,12.13
2018-10-09T15:22:42.102Z,11.80
2018-10-09T15:25:10.495Z,15.65
2018-10-09T15:27:38.926Z,11.50
2018-10-09T15:30:07.275Z,11.68
2018-10-09T15:32:35.718Z,12.20
2018-10-09T15:35:03.992Z,12.53
2018-10-09T15:37:32.544Z,11.65
2018-10-09T15:40:00.859Z,11.90
2018-10-09T15:42:29.303Z,12.60
2018-10-09T15:44:57.622Z,11.57
2018-10-09T15:47:25.917Z,10.30
2018-10-09T15:49:54.149Z,12.33
2018-10-09T15:52:22.413Z,11.22
2018-10-09T15:54:50.715Z,11.90
2018-10-09T15:57:19.154Z,11.25
2018-10-09T15:59:47.492Z,13.55
2018-10-09T16:02:16.388Z,11.90
2018-10-09T16:04:44.664Z,12.25
2018-10-09T16:07:13.116Z,11.90
2018-10-09T16:09:41.986Z,11.48
2018-10-09T16:12:10.342Z,12.63
2018-10-09T16:14:38.723Z,14.35
2018-10-09T16:17:07.287Z,13.13
2018-10-09T16:19:35.818Z,13.08
2018-10-09T16:22:04.444Z,12.63
2018-10-09T16:24:32.712Z,16.45
2018-10-09T16:27:01.004Z,15.58
2018-10-09T16:29:29.340Z,16.15
2018-10-09T16:31:57.659Z,15.60
2018-10-09T16:34:25.927Z,14.68
2018-10-09T16:36:54.183Z,21.53
2018-10-09T16:39:22.500Z,21.23
2018-10-09T16:41:50.841Z,18.30
2018-10-09T16:44:19.230Z,18.37
2018-10-09T16:46:47.628Z,20.27
2018-10-09T16:49:15.951Z,19.87
2018-10-09T16:51:44.301Z,23.90
2018-10-09T16:54:12.706Z,22.63
2018-10-09T16:56:41.006Z,26.23
2018-10-09T16:59:09.319Z,26.93
2018-10-09T17:01:38.013Z,27.90
2018-10-09T17:04:06.380Z,24.03
2018-10-09T17:06:34.929Z,24.87
2018-10-09T17:09:03.455Z,25.67
2018-10-09T17:11:31.956Z,30.60
2018-10-09T17:14:00.451Z,29.27
2018-10-09T17:16:28.800Z,30.90
2018-10-09T17:18:57.136Z,35.00
2018-10-09T17:21:25.434Z,29.23
2018-10-09T17:23:54.340Z,31.70
2018-10-09T17:26:22.802Z,36.93
2018-10-09T17:28:51.792Z,31.63
2018-10-09T17:31:20.220Z,31.73
2018-10-09T17:33:48.570Z,34.57
2018-10-09T17:36:17.112Z,33.87
2018-10-09T17:38:45.514Z,36.97
2018-10-09T17:41:13.888Z,37.87
2018-10-09T17:43:42.444Z,41.17
2018-10-09T17:46:11.107Z,43.20
2018-10-09T17:48:39.555Z,44.07
2018-10-09T17:51:07.933Z,41.80
2018-10-09T17:53:36.273Z,40.37
2018-10-09T17:56:05.212Z,42.53
2018-10-09T17:58:33.505Z,43.47
2018-10-09T18:01:01.852Z,43.13
2018-10-09T18:03:30.286Z,43.20
2018-10-09T18:05:58.740Z,43.27
2018-10-09T18:08:27.147Z,41.13
2018-10-09T18:10:55.475Z,42.37
2018-10-09T18:13:24.038Z,41.07
2018-10-09T18:15:52.290Z,43.97
2018-10-09T18:18:20.704Z,45.83
2018-10-09T18:20:49.098Z,48.77
2018-10-09T18:23:17.376Z,45.90
2018-10-09T18:25:45.620Z,46.37
2018-10-09T18:28:13.946Z,52.13
2018-10-09T18:30:42.291Z,43.83
2018-10-09T18:33:10.689Z,51.07
2018-10-09T18:35:38.976Z,50.03
2018-10-09T18:38:07.385Z,48.67
2018-10-09T18:40:35.831Z,48.20
2018-10-09T18:43:04.077Z,50.87
2018-10-09T18:45:32.505Z,52.53
2018-10-09T18:48:00.830Z,48.03
2018-10-09T18:50:29.224Z,47.90
2018-10-09T18:52:59.371Z,48.70
2018-10-09T18:55:27.727Z,50.33
2018-10-09T18:57:56.123Z,49.47
2018-10-09T19:00:24.512Z,52.30
2018-10-09T19:02:52.859Z,55.17
2018-10-09T19:05:21.256Z,56.20
2018-10-09T19:07:49.611Z,53.33
2018-10-09T19:10:17.953Z,60.27
2018-10-09T19:12:46.240Z,57.80
2018-10-09T19:15:14.705Z,60.00
2018-10-09T19:17:43.030Z,62.47
2018-10-09T19:20:11.256Z,59.47
2018-10-09T19:22:39.603Z,60.73
2018-10-09T19:25:08.204Z,61.53
2018-10-09T19:27:36.742Z,61.30
2018-10-09T19:30:05.969Z,61.40
2018-10-09T19:32:34.369Z,63.57
2018-10-09T19:35:09.915Z,61.80
2018-10-09T19:37:38.525Z,64.67
2018-10-09T19:40:06.982Z,64.97
2018-10-09T19:42:35.315Z,66.27
2018-10-09T19:45:03.688Z,63.10
2018-10-09T19:47:35.168Z,62.03
2018-10-09T19:50:04.652Z,65.77
2018-10-09T19:52:32.920Z,63.57
2018-10-09T19:55:01.301Z,66.93
2018-10-09T19:57:29.904Z,64.17
2018-10-09T19:59:58.503Z,67.57
2018-10-09T20:02:26.838Z,68.13
2018-10-09T20:04:55.266Z,65.83
2018-10-09T20:07:23.696Z,65.50
2018-10-09T20:09:51.996Z,66.40
2018-10-09T20:12:20.284Z,67.07
2018-10-09T20:14:48.646Z,70.40
2018-10-09T20:17:17.012Z,70.20
2018-10-09T20:19:45.310Z,66.10
2018-10-09T20:22:13.851Z,66.17
2018-10-09T20:24:43.437Z,70.53
2018-10-09T20:27:11.813Z,75.00
2018-10-09T20:29:40.088Z,66.67
2018-10-09T20:32:08.466Z,75.93
2018-10-09T20:34:36.742Z,68.30
2018-10-09T20:37:05.128Z,73.63
2018-10-09T20:39:33.634Z,75.70
2018-10-09T20:42:02.364Z,70.03
2018-10-09T20:44:30.844Z,73.60
2018-10-09T20:46:59.156Z,74.70
2018-10-09T20:49:27.609Z,73.30
2018-10-09T20:51:56.091Z,74.17
2018-10-09T20:54:24.620Z,68.70
2018-10-09T20:56:53.036Z,72.97
2018-10-09T20:59:22.040Z,72.83
2018-10-09T21:01:50.370Z,78.37
2018-10-09T21:04:18.778Z,77.27
2018-10-09T21:06:47.211Z,72.07
2018-10-09T21:09:15.697Z,80.00
2018-10-09T21:11:44.361Z,81.90
2018-10-09T21:14:12.919Z,79.70
2018-10-09T21:16:41.280Z,80.03
2018-10-09T21:19:09.714Z,71.07
2018-10-09T21:21:38.097Z,75.93
2018-10-09T21:24:06.899Z,74.17
2018-10-09T21:26:36.087Z,75.33
2018-10-09T21:29:08.429Z,77.93
2018-10-09T21:31:38.811Z,78.67
2018-10-09T21:34:07.134Z,73.17
2018-10-09T21:36:35.644Z,79.27
2018-10-09T21:39:05.236Z,82.03
2018-10-09T21:41:33.542Z,80.97
2018-10-09T21:44:01.924Z,87.23
2018-10-09T21:46:30.212Z,86.27
2018-10-09T21:48:58.870Z,81.67
2018-10-09T21:51:27.409Z,80.47
2018-10-09T21:53:56.635Z,83.63
2018-10-09T21:56:24.957Z,89.60
2018-10-09T21:58:53.215Z,82.43
2018-10-09T22:01:21.704Z,85.07
2018-10-09T22:03:50.304Z,79.17
2018-10-09T22:06:18.588Z,79.00
2018-10-09T22:08:46.899Z,81.40
2018-10-09T22:11:15.520Z,83.83
2018-10-09T22:13:44.142Z,83.80
2018-10-09T22:16:13.063Z,86.33
2018-10-09T22:18:41.421Z,84.97
2018-10-09T22:21:09.690Z,89.30
2018-10-09T22:23:38.175Z,86.07
2018-10-09T22:26:06.534Z,93.57
2018-10-09T22:28:35.136Z,99.93
2018-10-09T22:31:03.560Z,92.53
2018-10-09T22:33:31.981Z,94.37
2018-10-09T22:36:00.285Z,94.73
2018-10-09T22:38:29.914Z,91.80
2018-10-09T22:40:59.107Z,91.43
2018-10-09T22:43:27.581Z,99.63
2018-10-09T22:45:56.517Z,97.63
2018-10-09T22:48:24.834Z,106.83
2018-10-09T22:50:54.249Z,109.07
2018-10-09T22:53:22.588Z,104.80
2018-10-09T22:55:51.395Z,100.73
2018-10-09T22:58:19.755Z,93.23
2018-10-09T23:00:48.132Z,94.03
2018-10-09T23:03:16.480Z,101.10
2018-10-09T23:05:45.078Z,95.93
2018-10-09T23:08:15.224Z,95.53
2018-10-09T23:10:43.728Z,106.07
2018-10-09T23:13:12.067Z,100.17
2018-10-09T23:15:40.347Z,96.87
2018-10-09T23:18:08.838Z,106.43
2018-10-09T23:20:37.097Z,101.53
2018-10-09T23:23:05.415Z,100.47
2018-10-09T23:25:33.775Z,100.43
2018-10-09T23:28:02.116Z,112.67
2018-10-09T23:30:30.440Z,108.80
2018-10-09T23:32:58.812Z,104.50
2018-10-09T23:35:27.156Z,105.97
2018-10-09T23:37:55.489Z,102.07
2018-10-09T23:40:23.760Z,104.63
2018-10-09T23:42:52.123Z,97.00
2018-10-09T23:45:20.403Z,95.07
2018-10-09T23:47:48.769Z,106.97
2018-10-09T23:50:17.085Z,106.00
2018-10-09T23:52:45.401Z,103.13
2018-10-09T23:55:13.812Z,104.00
2018-10-09T23:57:42.120Z,112.60
